createdAt,value
2018-10-17T00:01:00.393Z,35.53
2018-10-17T00:03:29.137Z,35.70
2018-10-17T00:05:57.877Z,39.03
2018-10-17T00:08:26.678Z,41.47
2018-10-17T00:10:55.404Z,37.37
2018-10-17T00:13:24.134Z,33.07
2018-10-17T00:15:52.933Z,44.27
2018-10-17T00:18:21.652Z,41.75
2018-10-17T00:20:50.413Z,40.80
2018-10-17T00:23:19.218Z,34.35
2018-10-17T00:25:47.956Z,36.87
2018-10-17T00:28:16.745Z,39.03
2018-10-17T00:30:45.473Z,39.30
2018-10-17T00:33:14.233Z,34.73
2018-10-17T00:35:43.034Z,34.30
2018-10-17T00:38:11.793Z,34.98
2018-10-17T00:40:40.574Z,40.30
2018-10-17T00:43:09.383Z,44.03
2018-10-17T00:45:38.150Z,33.87
2018-10-17T00:48:06.948Z,34.37
2018-10-17T00:50:35.725Z,32.30
2018-10-17T00:53:04.752Z,37.43
2018-10-17T00:55:33.441Z,35.30
2018-10-17T00:58:02.188Z,33.57
2018-10-17T01:00:30.977Z,36.87
2018-10-17T01:02:59.713Z,37.90
2018-10-17T01:05:28.530Z,31.73
2018-10-17T01:07:57.241Z,35.40
2018-10-17T01:10:25.969Z,34.23
2018-10-17T01:12:55.955Z,38.47
2018-10-17T01:15:24.694Z,29.67
2018-10-17T01:17:53.429Z,41.03
2018-10-17T01:20:22.187Z,32.73
2018-10-17T01:22:50.950Z,32.90
2018-10-17T01:25:19.749Z,36.23
2018-10-17T01:27:48.509Z,29.90
2018-10-17T01:30:17.269Z,39.37
2018-10-17T01:32:46.361Z,39.87
2018-10-17T01:35:15.107Z,32.38
2018-10-17T01:37:43.820Z,34.93
2018-10-17T01:40:12.559Z,37.47
2018-10-17T01:42:41.322Z,41.13
2018-10-17T01:45:10.229Z,34.80
2018-10-17T01:47:38.988Z,32.50
2018-10-17T01:50:08.321Z,33.37
2018-10-17T01:52:37.066Z,32.23
2018-10-17T01:55:06.450Z,32.47
2018-10-17T01:57:35.220Z,35.33
2018-10-17T02:00:04.398Z,42.13
2018-10-17T02:02:33.145Z,32.93
2018-10-17T02:05:01.925Z,39.80
2018-10-17T02:07:30.606Z,30.30
2018-10-17T02:09:59.329Z,33.10
2018-10-17T02:12:28.073Z,38.37
2018-10-17T02:14:56.808Z,28.53
2018-10-17T02:17:25.550Z,37.73
2018-10-17T02:19:54.277Z,32.87
2018-10-17T02:22:23.020Z,32.50
2018-10-17T02:24:51.768Z,41.37
2018-10-17T02:27:20.489Z,39.43
2018-10-17T02:29:49.257Z,27.13
2018-10-17T02:32:18.022Z,31.82
2018-10-17T02:34:52.267Z,35.13
2018-10-17T02:37:21.061Z,37.55
2018-10-17T02:39:49.798Z,38.87
2018-10-17T02:42:18.610Z,31.40
2018-10-17T02:44:47.338Z,33.70
2018-10-17T02:47:16.180Z,40.10
2018-10-17T02:49:45.225Z,35.30
2018-10-17T02:52:13.974Z,38.00
2018-10-17T02:54:42.882Z,37.20
2018-10-17T02:57:11.618Z,32.67
2018-10-17T02:59:40.358Z,32.97
2018-10-17T03:02:09.146Z,35.73
2018-10-17T03:04:37.901Z,30.93
2018-10-17T03:07:06.756Z,33.83
2018-10-17T03:09:35.997Z,44.47
2018-10-17T03:12:04.902Z,40.50
2018-10-17T03:14:33.667Z,33.20
2018-10-17T03:17:02.495Z,36.83
2018-10-17T03:19:31.211Z,37.47
2018-10-17T03:21:59.963Z,33.77
2018-10-17T03:24:28.712Z,36.43
2018-10-17T03:26:57.480Z,37.37
2018-10-17T03:29:26.266Z,33.90
2018-10-17T03:31:55.026Z,36.67
2018-10-17T03:34:23.803Z,36.27
2018-10-17T03:36:52.781Z,36.97
2018-10-17T03:39:21.539Z,36.87
2018-10-17T03:41:50.278Z,36.30
2018-10-17T03:44:19.070Z,45.40
2018-10-17T03:46:47.855Z,50.53
2018-10-17T03:49:16.686Z,61.25
2018-10-17T03:51:45.417Z,64.63
2018-10-17T03:54:14.148Z,51.07
2018-10-17T03:56:42.882Z,46.47
2018-10-17T03:59:11.755Z,46.83
2018-10-17T04:01:40.456Z,50.27
2018-10-17T04:04:09.269Z,56.80
2018-10-17T04:06:38.000Z,45.77
2018-10-17T04:09:07.482Z,44.87
2018-10-17T04:11:36.202Z,44.17
2018-10-17T04:14:05.215Z,52.90
2018-10-17T04:16:33.976Z,37.50
2018-10-17T04:19:02.756Z,44.23
2018-10-17T04:21:31.463Z,39.40
2018-10-17T04:24:00.230Z,46.60
2018-10-17T04:26:28.978Z,42.63
2018-10-17T04:28:57.837Z,43.97
2018-10-17T04:31:26.699Z,50.73
2018-10-17T04:33:55.447Z,50.10
2018-10-17T04:36:24.206Z,47.87
2018-10-17T04:38:52.990Z,52.30
2018-10-17T04:41:21.759Z,43.67
2018-10-17T04:43:50.610Z,52.87
2018-10-17T04:46:19.413Z,42.80
2018-10-17T04:48:48.188Z,53.97
2018-10-17T04:51:16.926Z,51.18
2018-10-17T04:53:45.670Z,51.13
2018-10-17T04:56:14.413Z,59.23
2018-10-17T04:58:43.146Z,53.53
2018-10-17T05:01:11.975Z,51.85
2018-10-17T05:03:40.727Z,78.83
2018-10-17T05:06:09.462Z,53.70
2018-10-17T05:08:38.402Z,54.83
2018-10-17T05:11:07.208Z,59.07
2018-10-17T05:13:35.894Z,55.70
2018-10-17T05:16:04.875Z,54.77
2018-10-17T05:18:33.609Z,48.70
2018-10-17T05:21:02.386Z,55.47
2018-10-17T05:23:31.126Z,57.90
2018-10-17T05:25:59.884Z,53.27
2018-10-17T05:28:28.678Z,61.63
2018-10-17T05:30:57.510Z,47.73
2018-10-17T05:33:26.199Z,57.50
2018-10-17T05:35:54.960Z,56.60
2018-10-17T05:38:23.758Z,47.57
2018-10-17T05:40:52.531Z,61.37
2018-10-17T05:43:21.273Z,65.52
2018-10-17T05:45:50.123Z,62.50
2018-10-17T05:48:18.881Z,46.50
2018-10-17T05:50:47.659Z,60.93
2018-10-17T05:53:16.420Z,61.80
2018-10-17T05:55:45.297Z,77.23
2018-10-17T05:58:14.098Z,76.13
2018-10-17T06:00:42.838Z,68.97
2018-10-17T06:03:11.562Z,76.80
2018-10-17T06:05:40.353Z,82.47
2018-10-17T06:08:09.188Z,83.40
2018-10-17T06:10:37.955Z,112.00
2018-10-17T06:13:06.787Z,129.37
2018-10-17T06:15:35.491Z,89.37
2018-10-17T06:18:04.485Z,284.70
2018-10-17T06:20:33.475Z,107.37
2018-10-17T06:23:02.264Z,287.13
2018-10-17T06:25:30.995Z,81.67
2018-10-17T06:27:59.758Z,170.63
2018-10-17T06:30:28.504Z,107.13
2018-10-17T06:32:57.240Z,63.40
2018-10-17T06:35:25.966Z,130.87
2018-10-17T06:37:54.727Z,131.33
2018-10-17T06:40:23.498Z,87.47
2018-10-17T06:42:52.307Z,74.60
2018-10-17T06:45:21.030Z,68.47
2018-10-17T06:47:49.757Z,62.03
2018-10-17T06:50:18.590Z,77.60
2018-10-17T06:52:47.302Z,78.77
2018-10-17T06:55:16.641Z,64.27
2018-10-17T06:57:45.336Z,75.27
2018-10-17T07:00:14.089Z,60.50
2018-10-17T07:02:42.819Z,64.07
2018-10-17T07:05:11.897Z,58.83
2018-10-17T07:07:40.913Z,79.97
2018-10-17T07:10:09.680Z,56.30
2018-10-17T07:12:38.446Z,62.00
2018-10-17T07:15:07.382Z,55.87
2018-10-17T07:17:36.302Z,48.97
2018-10-17T07:20:07.310Z,49.17
2018-10-17T07:22:36.073Z,56.70
2018-10-17T07:25:05.843Z,49.03
2018-10-17T07:27:34.528Z,56.17
2018-10-17T07:30:03.298Z,52.83
2018-10-17T07:32:32.066Z,51.30
2018-10-17T07:35:00.838Z,54.23
2018-10-17T07:37:29.678Z,52.70
2018-10-17T07:39:58.418Z,50.33
2018-10-17T07:42:27.155Z,41.43
2018-10-17T07:44:55.935Z,44.87
2018-10-17T07:47:24.701Z,48.07
2018-10-17T07:49:53.475Z,45.47
2018-10-17T07:52:22.199Z,40.07
2018-10-17T07:54:50.937Z,32.97
2018-10-17T07:57:19.783Z,30.37
2018-10-17T07:59:48.591Z,35.33
2018-10-17T08:02:18.216Z,39.77
2018-10-17T08:04:46.962Z,30.70
2018-10-17T08:07:16.346Z,29.23
2018-10-17T08:09:45.209Z,24.83
2018-10-17T08:12:14.104Z,22.80
2018-10-17T08:14:43.024Z,20.73
2018-10-17T08:17:12.415Z,18.43
2018-10-17T08:19:41.452Z,15.15
2018-10-17T08:22:10.187Z,12.73
2018-10-17T08:24:38.947Z,18.17
2018-10-17T08:27:07.735Z,16.70
2018-10-17T08:29:36.494Z,13.50
2018-10-17T08:32:06.220Z,11.97
2018-10-17T08:34:34.970Z,11.53
2018-10-17T08:37:05.106Z,13.93
2018-10-17T08:39:33.574Z,15.37
2018-10-17T08:42:02.338Z,15.07
2018-10-17T08:44:31.171Z,12.13
2018-10-17T08:46:59.934Z,13.67
2018-10-17T08:49:28.714Z,12.67
2018-10-17T08:51:57.442Z,12.67
2018-10-17T08:54:26.661Z,14.70
2018-10-17T08:56:55.466Z,15.43
2018-10-17T08:59:24.873Z,12.93
2018-10-17T09:01:56.004Z,14.43
2018-10-17T09:04:24.774Z,18.63
2018-10-17T09:06:53.546Z,13.70
2018-10-17T09:09:22.933Z,14.03
2018-10-17T09:11:51.669Z,16.00
2018-10-17T09:14:20.473Z,15.60
2018-10-17T09:16:49.273Z,9.30
2018-10-17T09:19:17.948Z,13.27
2018-10-17T09:21:47.105Z,9.80
2018-10-17T09:24:15.656Z,6.47
2018-10-17T09:26:44.265Z,4.93
2018-10-17T09:29:13.015Z,4.50
2018-10-17T09:31:41.795Z,5.03
2018-10-17T09:34:10.593Z,6.50
2018-10-17T09:36:39.309Z,7.63
2018-10-17T09:39:09.663Z,8.53
2018-10-17T09:41:38.394Z,12.33
2018-10-17T09:44:07.110Z,5.60
2018-10-17T09:46:35.866Z,6.93
2018-10-17T09:49:04.692Z,6.87
2018-10-17T09:51:33.778Z,6.97
2018-10-17T09:54:02.587Z,6.57
2018-10-17T09:56:31.270Z,6.27
2018-10-17T09:59:00.043Z,6.03
2018-10-17T10:01:33.854Z,8.23
2018-10-17T10:04:02.694Z,8.23
2018-10-17T10:06:31.396Z,7.57
2018-10-17T10:09:00.215Z,10.47
2018-10-17T10:11:28.954Z,7.33
2018-10-17T10:13:57.670Z,7.60
2018-10-17T10:16:26.452Z,5.13
2018-10-17T10:18:55.305Z,11.70
2018-10-17T10:21:24.018Z,7.17
2018-10-17T10:23:52.739Z,5.03
2018-10-17T10:26:21.495Z,7.77
2018-10-17T10:28:50.246Z,10.27
2018-10-17T10:31:19.055Z,12.97
2018-10-17T10:33:47.835Z,6.97
2018-10-17T10:36:16.663Z,9.25
2018-10-17T10:38:45.414Z,9.20
2018-10-17T10:41:14.217Z,9.30
2018-10-17T10:43:42.954Z,7.07
2018-10-17T10:46:11.730Z,7.50
2018-10-17T10:48:40.494Z,15.93
2018-10-17T10:51:09.873Z,14.73
2018-10-17T10:53:38.594Z,6.87
2018-10-17T10:56:07.341Z,6.73
2018-10-17T10:58:36.175Z,16.53
2018-10-17T11:01:04.895Z,6.77
2018-10-17T11:03:33.653Z,6.07
2018-10-17T11:06:02.406Z,9.10
2018-10-17T11:08:31.094Z,6.17
2018-10-17T11:10:59.936Z,11.07
2018-10-17T11:13:28.581Z,7.87
2018-10-17T11:15:57.343Z,7.57
2018-10-17T11:18:26.067Z,5.30
2018-10-17T11:20:55.788Z,7.97
2018-10-17T11:23:24.530Z,3.83
2018-10-17T11:25:53.223Z,2.90
2018-10-17T11:28:21.968Z,10.93
2018-10-17T11:30:50.691Z,4.07
2018-10-17T11:33:19.588Z,4.43
2018-10-17T11:35:48.210Z,5.87
2018-10-17T11:38:16.946Z,3.00
2018-10-17T11:40:45.744Z,4.10
2018-10-17T11:43:14.404Z,3.97
2018-10-17T11:45:43.118Z,6.13
2018-10-17T11:48:11.867Z,6.72
2018-10-17T11:50:40.677Z,5.90
2018-10-17T11:53:09.368Z,7.97
2018-10-17T11:55:38.099Z,8.17
2018-10-17T11:58:06.822Z,5.57
2018-10-17T12:00:35.574Z,9.73
2018-10-17T12:03:04.653Z,7.30
2018-10-17T12:05:33.762Z,6.47
2018-10-17T12:08:02.134Z,4.43
2018-10-17T12:10:30.849Z,8.53
2018-10-17T12:12:59.674Z,6.30
2018-10-17T12:15:28.407Z,4.83
2018-10-17T12:17:57.255Z,7.97
2018-10-17T12:20:25.948Z,5.40
2018-10-17T12:22:54.682Z,4.33
2018-10-17T12:25:23.435Z,4.13
2018-10-17T12:27:52.288Z,4.80
2018-10-17T12:30:20.987Z,4.45
2018-10-17T12:32:49.766Z,7.83
2018-10-17T12:35:18.589Z,3.73
2018-10-17T12:37:47.911Z,7.03
2018-10-17T12:40:16.658Z,6.10
2018-10-17T12:42:45.470Z,4.83
2018-10-17T12:45:14.277Z,4.90
2018-10-17T12:47:43.075Z,8.03
2018-10-17T12:50:11.858Z,4.08
2018-10-17T12:52:40.688Z,4.33
2018-10-17T12:55:09.824Z,3.90
2018-10-17T12:57:38.556Z,5.83
2018-10-17T13:00:09.062Z,5.67
2018-10-17T13:02:37.906Z,6.13
2018-10-17T13:05:07.832Z,5.23
2018-10-17T13:07:36.546Z,4.03
2018-10-17T13:10:06.114Z,3.60
2018-10-17T13:12:34.860Z,8.30
2018-10-17T13:15:05.572Z,6.80
2018-10-17T13:17:34.230Z,4.50
2018-10-17T13:20:02.955Z,7.10
2018-10-17T13:22:31.679Z,4.20
2018-10-17T13:25:00.690Z,6.57
2018-10-17T13:27:29.432Z,3.30
2018-10-17T13:29:58.221Z,6.70
2018-10-17T13:32:26.970Z,5.13
2018-10-17T13:34:55.702Z,4.47
2018-10-17T13:37:24.447Z,4.80
2018-10-17T13:39:53.206Z,6.27
2018-10-17T13:42:21.941Z,4.15
2018-10-17T13:44:50.662Z,5.03
2018-10-17T13:47:19.578Z,9.30
2018-10-17T13:49:48.327Z,3.87
2018-10-17T13:52:17.089Z,6.33
2018-10-17T13:54:46.005Z,4.53
2018-10-17T13:57:14.742Z,7.30
2018-10-17T13:59:43.600Z,3.10
2018-10-17T14:02:12.275Z,9.27
2018-10-17T14:04:41.034Z,8.57
2018-10-17T14:07:09.789Z,2.95
2018-10-17T14:09:38.555Z,5.00
2018-10-17T14:12:07.603Z,4.80
2018-10-17T14:14:36.269Z,5.13
2018-10-17T14:17:05.032Z,4.10
2018-10-17T14:19:34.032Z,5.60
2018-10-17T14:22:02.758Z,3.33
2018-10-17T14:24:31.478Z,4.67
2018-10-17T14:27:00.265Z,6.90
2018-10-17T14:29:29.022Z,6.10
2018-10-17T14:31:57.714Z,5.70
2018-10-17T14:34:26.498Z,6.63
2018-10-17T14:36:55.312Z,13.03
2018-10-17T14:39:24.061Z,5.33
2018-10-17T14:41:52.822Z,3.60
2018-10-17T14:44:21.522Z,4.55
2018-10-17T14:46:50.306Z,6.83
2018-10-17T14:49:19.087Z,3.97
2018-10-17T14:51:47.883Z,5.73
2018-10-17T14:54:16.734Z,3.12
2018-10-17T14:56:45.449Z,4.60
2018-10-17T14:59:15.091Z,6.83
2018-10-17T15:01:43.834Z,3.17
2018-10-17T15:04:12.550Z,5.10
2018-10-17T15:06:41.290Z,8.77
2018-10-17T15:09:10.297Z,7.50
2018-10-17T15:11:39.767Z,8.10
2018-10-17T15:14:08.600Z,8.20
2018-10-17T15:16:37.687Z,6.77
2018-10-17T15:19:06.427Z,6.70
2018-10-17T15:21:35.191Z,5.13
2018-10-17T15:24:05.033Z,9.03
2018-10-17T15:26:33.722Z,6.80
2018-10-17T15:29:02.448Z,5.73
2018-10-17T15:31:31.228Z,6.80
2018-10-17T15:33:59.947Z,5.37
2018-10-17T15:36:28.667Z,7.73
2018-10-17T15:38:57.433Z,4.47
2018-10-17T15:41:26.190Z,7.63
2018-10-17T15:43:54.934Z,6.90
2018-10-17T15:46:23.670Z,4.80
2018-10-17T15:48:52.451Z,7.00
2018-10-17T15:51:22.006Z,4.77
2018-10-17T15:53:50.770Z,6.37
2018-10-17T15:56:19.530Z,8.00
2018-10-17T15:58:48.250Z,3.47
2018-10-17T16:01:17.111Z,8.13
2018-10-17T16:03:45.931Z,6.83
2018-10-17T16:06:14.790Z,8.30
2018-10-17T16:08:43.460Z,7.20
2018-10-17T16:11:12.276Z,5.08
2018-10-17T16:13:40.996Z,8.07
2018-10-17T16:16:09.747Z,9.57
2018-10-17T16:18:38.497Z,12.97
2018-10-17T16:21:07.231Z,6.87
2018-10-17T16:23:35.960Z,9.53
2018-10-17T16:26:04.927Z,10.23
2018-10-17T16:28:33.574Z,10.23
2018-10-17T16:31:02.459Z,11.90
2018-10-17T16:33:31.094Z,13.10
2018-10-17T16:35:59.934Z,7.47
2018-10-17T16:38:28.622Z,11.87
2018-10-17T16:40:57.384Z,7.47
2018-10-17T16:43:26.471Z,14.77
2018-10-17T16:45:55.234Z,12.07
2018-10-17T16:48:24.004Z,10.90
2018-10-17T16:50:52.782Z,11.97
2018-10-17T16:53:21.494Z,10.10
2018-10-17T16:55:50.220Z,14.10
2018-10-17T16:58:19.110Z,12.97
2018-10-17T17:00:47.704Z,12.27
2018-10-17T17:03:16.553Z,9.38
2018-10-17T17:05:45.234Z,8.30
2018-10-17T17:08:13.958Z,10.10
2018-10-17T17:10:42.697Z,10.87
2018-10-17T17:13:11.447Z,18.00
2018-10-17T17:15:40.194Z,9.27
2018-10-17T17:18:08.970Z,9.60
2018-10-17T17:20:37.681Z,12.00
2018-10-17T17:23:06.463Z,8.30
2018-10-17T17:25:35.250Z,10.37
2018-10-17T17:28:04.485Z,10.17
2018-10-17T17:30:33.192Z,11.97
2018-10-17T17:33:01.977Z,23.00
2018-10-17T17:35:30.699Z,11.70
2018-10-17T17:37:59.446Z,15.03
2018-10-17T17:40:28.199Z,22.30
2018-10-17T17:42:57.030Z,13.67
2018-10-17T17:45:25.787Z,11.53
2018-10-17T17:47:54.563Z,9.10
2018-10-17T17:50:23.307Z,10.53
2018-10-17T17:52:52.084Z,8.97
2018-10-17T17:55:20.946Z,12.63
2018-10-17T17:57:49.832Z,17.93
2018-10-17T18:00:18.558Z,9.97
2018-10-17T18:02:47.348Z,12.87
2018-10-17T18:05:16.107Z,10.47
2018-10-17T18:07:45.654Z,11.90
2018-10-17T18:10:15.286Z,8.97
2018-10-17T18:12:44.022Z,10.33
2018-10-17T18:15:12.776Z,13.68
2018-10-17T18:17:41.570Z,10.60
2018-10-17T18:20:10.375Z,13.18
2018-10-17T18:22:39.174Z,17.70
2018-10-17T18:25:08.036Z,14.93
2018-10-17T18:27:37.201Z,8.77
2018-10-17T18:30:06.218Z,13.70
2018-10-17T18:32:34.988Z,10.77
2018-10-17T18:35:05.578Z,11.93
2018-10-17T18:37:34.632Z,13.33
2018-10-17T18:40:03.447Z,13.00
2018-10-17T18:42:32.279Z,14.43
2018-10-17T18:45:01.095Z,14.27
2018-10-17T18:47:29.834Z,18.00
2018-10-17T18:49:58.586Z,20.33
2018-10-17T18:52:27.350Z,18.60
2018-10-17T18:54:56.119Z,17.40
2018-10-17T18:57:24.863Z,13.00
2018-10-17T18:59:53.659Z,18.80
2018-10-17T19:02:22.464Z,15.97
2018-10-17T19:04:51.258Z,16.47
2018-10-17T19:07:20.903Z,15.60
2018-10-17T19:09:49.646Z,14.23
2018-10-17T19:12:18.398Z,17.73
2018-10-17T19:14:47.154Z,15.20
2018-10-17T19:17:15.945Z,12.98
2018-10-17T19:19:44.742Z,11.30
2018-10-17T19:22:14.101Z,12.35
2018-10-17T19:24:43.043Z,16.07
2018-10-17T19:27:11.801Z,11.90
2018-10-17T19:29:41.155Z,11.97
2018-10-17T19:32:09.938Z,17.37
2018-10-17T19:34:38.731Z,18.20
2018-10-17T19:37:07.535Z,13.50
2018-10-17T19:39:36.304Z,13.30
2018-10-17T19:42:05.485Z,12.33
2018-10-17T19:44:35.250Z,15.67
2018-10-17T19:47:04.409Z,14.17
2018-10-17T19:49:33.209Z,16.60
2018-10-17T19:52:02.115Z,24.10
2018-10-17T19:54:31.058Z,14.33
2018-10-17T19:56:59.831Z,15.03
2018-10-17T19:59:28.647Z,12.50
2018-10-17T20:01:57.498Z,19.90
2018-10-17T20:04:26.244Z,24.40
2018-10-17T20:06:55.027Z,17.20
2018-10-17T20:09:23.814Z,15.77
2018-10-17T20:11:52.566Z,12.30
2018-10-17T20:14:21.424Z,16.87
2018-10-17T20:16:50.127Z,19.90
2018-10-17T20:19:18.951Z,15.33
2018-10-17T20:21:47.704Z,13.50
2018-10-17T20:24:16.526Z,16.65
2018-10-17T20:26:45.274Z,18.87
2018-10-17T20:29:14.026Z,19.27
2018-10-17T20:31:42.894Z,9.00
2018-10-17T20:34:13.142Z,7.12
2018-10-17T20:36:42.355Z,7.77
2018-10-17T20:39:13.740Z,7.23
2018-10-17T20:41:42.597Z,5.47
2018-10-17T20:44:13.130Z,9.70
2018-10-17T20:46:41.791Z,6.83
2018-10-17T20:49:10.741Z,10.70
2018-10-17T20:51:39.522Z,10.40
2018-10-17T20:54:08.627Z,12.53
2018-10-17T20:56:37.853Z,18.00
2018-10-17T20:59:10.027Z,13.28
2018-10-17T21:01:38.860Z,16.03
2018-10-17T21:04:07.646Z,11.17
2018-10-17T21:06:36.416Z,12.17
2018-10-17T21:09:08.259Z,15.13
2018-10-17T21:11:37.074Z,14.40
2018-10-17T21:14:07.303Z,16.67
2018-10-17T21:16:36.043Z,16.70
2018-10-17T21:19:05.099Z,11.60
2018-10-17T21:21:33.872Z,11.83
2018-10-17T21:24:02.634Z,18.17
2018-10-17T21:26:31.371Z,15.80
2018-10-17T21:29:00.156Z,17.00
2018-10-17T21:31:28.930Z,8.03
2018-10-17T21:33:57.701Z,11.73
2018-10-17T21:39:01.903Z,8.53
2018-10-17T21:41:30.622Z,8.77
2018-10-17T21:43:59.474Z,10.07
2018-10-17T21:46:28.225Z,8.83
2018-10-17T21:48:56.973Z,8.90
2018-10-17T21:51:25.734Z,14.33
2018-10-17T21:53:54.522Z,12.97
2018-10-17T21:56:23.314Z,10.70
2018-10-17T21:58:52.176Z,14.00
2018-10-17T22:01:20.981Z,10.60
2018-10-17T22:03:49.750Z,15.73
2018-10-17T22:06:18.536Z,11.87
2018-10-17T22:08:47.307Z,11.80
2018-10-17T22:11:16.098Z,7.13
2018-10-17T22:13:44.830Z,9.73
2018-10-17T22:16:13.646Z,9.83
2018-10-17T22:18:42.412Z,7.80
2018-10-17T22:21:11.222Z,10.37
2018-10-17T22:23:40.015Z,12.47
2018-10-17T22:26:08.948Z,9.10
2018-10-17T22:28:37.654Z,6.60
2018-10-17T22:31:06.388Z,7.27
2018-10-17T22:33:35.126Z,6.93
2018-10-17T22:36:04.514Z,5.63
2018-10-17T22:38:33.251Z,8.57
2018-10-17T22:41:02.027Z,8.80
2018-10-17T22:43:30.770Z,10.87
2018-10-17T22:45:59.596Z,8.70
2018-10-17T22:48:28.350Z,7.33
2018-10-17T22:50:57.118Z,9.20
2018-10-17T22:53:25.870Z,9.17
2018-10-17T22:55:55.368Z,10.93
2018-10-17T22:58:24.626Z,16.97
2018-10-17T23:00:53.400Z,10.23
2018-10-17T23:03:22.186Z,9.00
2018-10-17T23:05:50.910Z,8.97
2018-10-17T23:08:19.691Z,10.90
2018-10-17T23:10:48.462Z,14.85
2018-10-17T23:13:17.299Z,10.30
2018-10-17T23:15:46.042Z,9.40
2018-10-17T23:18:14.822Z,9.48
2018-10-17T23:20:43.547Z,13.27
2018-10-17T23:23:12.281Z,9.33
2018-10-17T23:25:41.051Z,10.07
2018-10-17T23:28:09.783Z,14.07
2018-10-17T23:30:38.519Z,13.10
2018-10-17T23:33:07.382Z,12.87
2018-10-17T23:35:36.155Z,11.57
2018-10-17T23:38:05.032Z,11.30
2018-10-17T23:40:33.650Z,14.17
2018-10-17T23:43:02.546Z,12.67
2018-10-17T23:45:31.283Z,10.00
2018-10-17T23:48:00.176Z,13.23
2018-10-17T23:50:28.889Z,14.03
2018-10-17T23:52:57.621Z,12.07
2018-10-17T23:55:26.366Z,11.90
2018-10-17T23:57:55.110Z,13.53
